Terminal Aerodrome Forecast
Issued by NWS Cleveland, OH

Home | Current Version | Previous Version | Text Only | Print | Product List | Glossary Off
Versions: 1 2 3 4 5 6 7 8 9 10 11 12 13 14 15 16 17 18

306
FTUS41 KCLE 031139
TAFMFD
TAF
KMFD 031139Z 0312/0412 26006KT P6SM OVC022
     FM031900 26005KT P6SM OVC035
     FM040100 VRB04KT P6SM BKN035=

USA.gov is the U.S. government's official web portal to all federal, state and local government web resources and services.